Time;durP1;ratioP1;P1;durP2;ratioP2;P2;SDS_P1;SDS_P2;PMS_P1;PMS_P2;Temp;Humidity;BMP_temperature;BMP_pressure;BME280_temperature;BME280_humidity;BME280_pressure;Samples;Min_cycle;Max_cycle;Signal;HPM_P1;HPM_P2
2021/04/20 00:01:39;;;;;;;27.5;24.5;;;;;;;4.5;100;98440.58;;;;
2021/04/20 00:11:38;;;;;;;34.4;25.7;;;;;;;4.42;100;98427.78;;;;
2021/04/20 00:21:36;;;;;;;37.2;28.2;;;;;;;4.58;100;98438.42;;;;
2021/04/20 00:31:34;;;;;;;41.1;32.8;;;;;;;4.82;100;98440.2;;;;
2021/04/20 00:41:33;;;;;;;61.4;42;;;;;;;5.04;100;98429.13;;;;
2021/04/20 00:51:31;;;;;;;50.4;40.8;;;;;;;5.27;100;98436.5;;;;
2021/04/20 01:01:29;;;;;;;47.2;42;;;;;;;5.41;100;98418.77;;;;
2021/04/20 01:11:27;;;;;;;53.5;41.2;;;;;;;5.59;100;98427.97;;;;
2021/04/20 01:21:26;;;;;;;46.4;38.5;;;;;;;5.69;100;98416.43;;;;
2021/04/20 01:31:24;;;;;;;73.6;55.5;;;;;;;5.75;100;98421.45;;;;
2021/04/20 01:41:23;;;;;;;59.8;43.7;;;;;;;5.97;100;98421.04;;;;
2021/04/20 01:51:21;;;;;;;57.4;43.1;;;;;;;6.13;100;98429.7;;;;
2021/04/20 02:11:21;;;;;;;51.8;41.2;;;;;;;6.2;100;98427.5;;;;
2021/04/20 02:21:16;;;;;;;58.2;45.3;;;;;;;6.19;100;98423.22;;;;
2021/04/20 02:31:15;;;;;;;67.8;53.1;;;;;;;6.08;100;98431.34;;;;
2021/04/20 02:41:13;;;;;;;72.5;51.5;;;;;;;6.16;100;98421.91;;;;
2021/04/20 02:51:12;;;;;;;63.7;47.8;;;;;;;6.13;100;98422.48;;;;
2021/04/20 03:01:16;;;;;;;58.8;44.9;;;;;;;5.97;100;98415.69;;;;
2021/04/20 03:11:10;;;;;;;64.5;43.4;;;;;;;5.92;100;98413.84;;;;
2021/04/20 03:21:07;;;;;;;64.2;48.7;;;;;;;6.02;100;98416.42;;;;
2021/04/20 03:31:06;;;;;;;55.6;46.1;;;;;;;5.94;100;98411.68;;;;
2021/04/20 03:41:04;;;;;;;77.8;48.7;;;;;;;5.87;100;98415.75;;;;
2021/04/20 03:51:02;;;;;;;72.3;49.8;;;;;;;5.91;100;98409.57;;;;
2021/04/20 04:01:01;;;;;;;53.2;44.4;;;;;;;5.9;100;98405.29;;;;
2021/04/20 04:10:59;;;;;;;61.8;46;;;;;;;6.01;100;98404.13;;;;
2021/04/20 04:20:58;;;;;;;53.8;44.6;;;;;;;6.02;100;98403.05;;;;
2021/04/20 04:30:56;;;;;;;51.7;45.5;;;;;;;5.99;100;98406.3;;;;
2021/04/20 04:40:55;;;;;;;60.2;50;;;;;;;6.16;100;98410.41;;;;
2021/04/20 04:50:53;;;;;;;62.6;47.5;;;;;;;6.26;100;98418.33;;;;
2021/04/20 05:00:52;;;;;;;72;53.1;;;;;;;6.38;100;98408.85;;;;
2021/04/20 05:10:50;;;;;;;59.6;48.6;;;;;;;6.57;100;98415.05;;;;
2021/04/20 05:20:49;;;;;;;60.8;51.6;;;;;;;6.93;100;98417.3;;;;
2021/04/20 05:30:48;;;;;;;73.4;52.1;;;;;;;7.2;100;98422.02;;;;
2021/04/20 05:40:46;;;;;;;72.2;52.7;;;;;;;7.28;100;98432.91;;;;
2021/04/20 05:50:50;;;;;;;66.5;49.6;;;;;;;7.52;100;98436.31;;;;
2021/04/20 06:00:44;;;;;;;51.7;37.6;;;;;;;7.79;100;98432.13;;;;
2021/04/20 06:10:42;;;;;;;53.5;42.5;;;;;;;7.87;100;98434.96;;;;
2021/04/20 06:20:41;;;;;;;56.3;41.5;;;;;;;8.07;100;98433.81;;;;
2021/04/20 06:30:40;;;;;;;53.3;37.4;;;;;;;8.14;100;98433.44;;;;
2021/04/20 06:40:40;;;;;;;47.4;42.2;;;;;;;8.31;100;98439.06;;;;
2021/04/20 06:50:39;;;;;;;56.4;45;;;;;;;8.33;100;98442.27;;;;
2021/04/20 07:00:43;;;;;;;45.6;40;;;;;;;8.61;100;98448.47;;;;
2021/04/20 07:10:39;;;;;;;57.2;44.7;;;;;;;9.12;100;98440.98;;;;
2021/04/20 07:20:35;;;;;;;46;39.2;;;;;;;9.12;100;98445.55;;;;
2021/04/20 07:30:33;;;;;;;60.7;42.9;;;;;;;9.8;100;98446.16;;;;
2021/04/20 07:40:32;;;;;;;57.2;41.5;;;;;;;10.05;100;98445.55;;;;
2021/04/20 07:50:31;;;;;;;60.4;43.3;;;;;;;10.69;100;98453.36;;;;
2021/04/20 08:00:30;;;;;;;50.8;39.3;;;;;;;10.66;100;98449.37;;;;
2021/04/20 08:10:29;;;;;;;54.4;47.2;;;;;;;10.45;100;98443.73;;;;
2021/04/20 08:20:28;;;;;;;63.3;50.7;;;;;;;10.77;100;98444.5;;;;
2021/04/20 08:30:27;;;;;;;48.1;41.9;;;;;;;11.28;100;98435.77;;;;
2021/04/20 08:40:26;;;;;;;52.1;46.7;;;;;;;10.8;100;98439.27;;;;
2021/04/20 08:50:25;;;;;;;37.9;31.9;;;;;;;11.22;100;98439.7;;;;
2021/04/20 09:00:24;;;;;;;50.9;44.3;;;;;;;11.16;100;98424.78;;;;
2021/04/20 09:10:23;;;;;;;38.4;33.6;;;;;;;11.79;100;98421.52;;;;
2021/04/20 09:20:22;;;;;;;42.5;36.3;;;;;;;12.44;100;98411.2;;;;
2021/04/20 09:30:22;;;;;;;32.2;26.9;;;;;;;12.98;100;98401.39;;;;
2021/04/20 09:40:21;;;;;;;31.8;28.4;;;;;;;13.59;97.41992;98404.51;;;;
2021/04/20 09:50:20;;;;;;;27.8;23.9;;;;;;;13.64;94.35645;98389.98;;;;
2021/04/20 10:00:20;;;;;;;20.9;18.7;;;;;;;13.95;91.65039;98391.09;;;;
2021/04/20 10:10:19;;;;;;;27.3;24.4;;;;;;;14.27;93.77734;98388.69;;;;
2021/04/20 10:20:20;;;;;;;27.4;20.6;;;;;;;14.63;86.60449;98379.84;;;;
2021/04/20 10:30:19;;;;;;;24;18.4;;;;;;;14.19;85.42969;98386.89;;;;
2021/04/20 10:40:18;;;;;;;21.5;17.6;;;;;;;12.97;88.83691;98407.14;;;;
2021/04/20 10:50:17;;;;;;;8;5.7;;;;;;;10.14;100;98418.69;;;;
2021/04/20 11:00:16;;;;;;;8;5.1;;;;;;;9.2;100;98399.14;;;;
2021/04/20 11:10:16;;;;;;;10.2;6.9;;;;;;;9.09;100;98380.52;;;;
2021/04/20 11:20:14;;;;;;;8.2;6.1;;;;;;;9.73;100;98358.86;;;;
2021/04/20 11:30:13;;;;;;;9.6;6.3;;;;;;;10.38;100;98345.59;;;;
2021/04/20 11:40:12;;;;;;;7.6;5.7;;;;;;;11.5;100;98338.45;;;;
2021/04/20 11:50:11;;;;;;;12.1;8.4;;;;;;;12.45;94.84668;98342.52;;;;
2021/04/20 12:00:10;;;;;;;7.4;5;;;;;;;13.24;87.26172;98349.05;;;;
2021/04/20 12:10:09;;;;;;;13.5;9.7;;;;;;;13.69;81.10352;98344.52;;;;
2021/04/20 12:20:09;;;;;;;9.1;5.3;;;;;;;13.84;81.88086;98346.61;;;;
2021/04/20 12:30:10;;;;;;;7;5.2;;;;;;;14.34;79.82422;98345.59;;;;
2021/04/20 12:40:07;;;;;;;8;5.2;;;;;;;14.4;76.95703;98325.28;;;;
2021/04/20 12:50:06;;;;;;;8.2;4.8;;;;;;;15.13;78.72559;98317.85;;;;
2021/04/20 13:00:06;;;;;;;9.8;5.6;;;;;;;15.52;72.68652;98299.95;;;;
2021/04/20 13:10:05;;;;;;;6.8;5.3;;;;;;;15.75;75.52637;98295.56;;;;
2021/04/20 13:20:05;;;;;;;6.6;5.5;;;;;;;14.97;75.00391;98311.53;;;;
2021/04/20 13:30:05;;;;;;;7.6;4.6;;;;;;;13.78;85.02344;98309.23;;;;
2021/04/20 13:40:04;;;;;;;9.4;6.7;;;;;;;14.09;91.15039;98307.58;;;;
2021/04/20 13:50:04;;;;;;;15.4;6.3;;;;;;;14.14;88.53027;98306.58;;;;
2021/04/20 14:00:04;;;;;;;8.6;4.7;;;;;;;14.49;82.11621;98306.96;;;;
2021/04/20 14:10:03;;;;;;;14.3;4.8;;;;;;;14.74;82.85449;98307.73;;;;
2021/04/20 14:20:02;;;;;;;8;4.1;;;;;;;13.71;78.25684;98290.03;;;;
2021/04/20 14:30:02;;;;;;;7.5;4.4;;;;;;;13.3;77.5957;98291.67;;;;
2021/04/20 14:40:02;;;;;;;4.5;2.8;;;;;;;13.85;79.61133;98285.09;;;;
2021/04/20 14:50:01;;;;;;;4.7;3;;;;;;;14.33;78.31152;98274.3;;;;
2021/04/20 15:00:00;;;;;;;5.8;3.3;;;;;;;14.66;76.21582;98276.09;;;;
2021/04/20 15:10:00;;;;;;;5.3;3.6;;;;;;;16.2;72.91406;98278.05;;;;
2021/04/20 15:19:59;;;;;;;7.2;4.4;;;;;;;17.04;65.13281;98279.23;;;;
2021/04/20 15:29:59;;;;;;;6.7;4.4;;;;;;;19.08;60.56934;98279.29;;;;
2021/04/20 15:39:59;;;;;;;6.1;4.5;;;;;;;20.82;49.28516;98276.31;;;;
2021/04/20 15:50:00;;;;;;;5.8;4.1;;;;;;;21.12;43.55664;98281.58;;;;
2021/04/20 16:00:00;;;;;;;8.7;4.4;;;;;;;21.69;35.15137;98288.08;;;;
2021/04/20 16:10:01;;;;;;;7.8;4.2;;;;;;;19.74;37.15527;98268.75;;;;
2021/04/20 16:20:01;;;;;;;5.5;2.8;;;;;;;17.44;41.13574;98263.31;;;;
2021/04/20 16:30:01;;;;;;;7.4;4.9;;;;;;;16.22;44.68359;98254.8;;;;
2021/04/20 16:40:01;;;;;;;6.1;3.3;;;;;;;15.34;45.6875;98253.27;;;;
2021/04/20 16:50:00;;;;;;;14.3;5.9;;;;;;;14.66;47.8916;98248.97;;;;
2021/04/20 17:00:00;;;;;;;9.4;4.9;;;;;;;13.94;50.83984;98262.19;;;;
2021/04/20 17:10:00;;;;;;;19.7;16.9;;;;;;;13.1;55.28027;98246.5;;;;
2021/04/20 17:20:25;;;;;;;8.8;4.8;;;;;;;12.31;58.28125;98249.27;;;;
2021/04/20 17:29:58;;;;;;;11.6;7.9;;;;;;;11.58;60.67285;98253.98;;;;
2021/04/20 17:39:57;;;;;;;11.6;10.2;;;;;;;10.71;62.46875;98260.57;;;;
2021/04/20 17:49:56;;;;;;;19.1;16.9;;;;;;;10.15;64.41406;98266.79;;;;
2021/04/20 17:59:56;;;;;;;18.2;10.1;;;;;;;9.68;66.89844;98265.63;;;;
2021/04/20 18:09:55;;;;;;;18;13.1;;;;;;;9.26;74.125;98279.61;;;;
2021/04/20 18:20:05;;;;;;;26.8;18.5;;;;;;;8.91;74.04297;98281.23;;;;
2021/04/20 18:29:52;;;;;;;26;21.7;;;;;;;8.63;76.43457;98296.63;;;;
2021/04/20 18:40:01;;;;;;;38.5;31.3;;;;;;;8.48;79.97754;98300.43;;;;
2021/04/20 18:49:49;;;;;;;38;33.9;;;;;;;8.42;80.02148;98300.84;;;;
2021/04/20 18:59:56;;;;;;;55.9;43.1;;;;;;;8.37;80.28223;98319.73;;;;
2021/04/20 19:09:49;;;;;;;38.4;33.2;;;;;;;8.5;79.75781;98306.28;;;;
2021/04/20 19:19:47;;;;;;;36.3;21.9;;;;;;;8.54;79.98828;98312.65;;;;
2021/04/20 19:29:47;;;;;;;23.9;18.3;;;;;;;8.41;82.02734;98318.84;;;;
2021/04/20 19:39:50;;;;;;;29.3;23.9;;;;;;;8.39;80.56641;98328.3;;;;
2021/04/20 19:49:44;;;;;;;23.9;20.8;;;;;;;8.45;82.4502;98330.58;;;;
2021/04/20 19:59:41;;;;;;;23.2;20.5;;;;;;;8.2;81.57227;98324.87;;;;
2021/04/20 20:09:41;;;;;;;22;17.7;;;;;;;8.23;81.62207;98324.27;;;;
2021/04/20 20:19:45;;;;;;;25;20.4;;;;;;;8.13;82.94727;98321.78;;;;
2021/04/20 20:29:35;;;;;;;28.2;20.6;;;;;;;8.14;83.18652;98328.75;;;;
2021/04/20 20:39:33;;;;;;;27.8;24.7;;;;;;;7.96;85.36719;98320.48;;;;
2021/04/20 20:49:32;;;;;;;24.4;21.7;;;;;;;7.81;85.83008;98318.07;;;;
2021/04/20 20:59:31;;;;;;;30.1;24.5;;;;;;;7.7;89.1377;98322.05;;;;
2021/04/20 21:09:29;;;;;;;28.1;22.5;;;;;;;7.83;87.66699;98315.91;;;;
2021/04/20 21:19:28;;;;;;;27.4;24.2;;;;;;;7.9;88.31738;98327.05;;;;
2021/04/20 21:29:26;;;;;;;30.1;23.4;;;;;;;8.03;87.71875;98331.63;;;;
2021/04/20 21:39:25;;;;;;;22.9;20.4;;;;;;;8.1;88.85156;98334.72;;;;
2021/04/20 21:49:24;;;;;;;33.3;24.3;;;;;;;8.16;89.80176;98326.58;;;;
2021/04/20 21:59:23;;;;;;;23.7;20.8;;;;;;;8.27;86.44531;98342.17;;;;
2021/04/20 22:09:21;;;;;;;27.3;18.6;;;;;;;8.37;85.92969;98346.58;;;;
2021/04/20 22:19:19;;;;;;;23.9;18.9;;;;;;;8.3;86.71973;98346.17;;;;
2021/04/20 22:29:18;;;;;;;26.1;20;;;;;;;7.9;89.08887;98353.08;;;;
2021/04/20 22:39:17;;;;;;;33.7;24.3;;;;;;;7.69;91.41309;98347.27;;;;
2021/04/20 22:49:15;;;;;;;33.1;24.9;;;;;;;7.56;93.76074;98353.39;;;;
2021/04/20 22:59:14;;;;;;;29.8;24.1;;;;;;;7.31;96.0459;98346.55;;;;
2021/04/20 23:09:12;;;;;;;27.9;24.5;;;;;;;7.28;97.07324;98351.69;;;;
2021/04/20 23:19:11;;;;;;;30.1;25.8;;;;;;;7.29;96.05273;98343.34;;;;
2021/04/20 23:29:09;;;;;;;27.4;21.4;;;;;;;7.37;94.61133;98339.21;;;;
2021/04/20 23:39:08;;;;;;;23;20.2;;;;;;;7.43;93.25293;98335.35;;;;
2021/04/20 23:49:06;;;;;;;28;21.7;;;;;;;7.4;92.17676;98343.98;;;;
2021/04/20 23:59:05;;;;;;;21.3;18.9;;;;;;;7.45;91.20703;98349.28;;;;
